Time,TemperatureF,DewpointF,PressureIn,WindDirection,WindDirectionDegrees,WindSpeedMPH,WindSpeedGustMPH,Humidity,HourlyPrecipIn,Conditions,Clouds,dailyrainin,SoftwareType,DateUTC
2013-01-02 00:10:00,7.7,3.0,29.94,NW,326,0.0,-999.0,79,-99.99,,,0.00,weatherlink.com 1.10,2013-01-02 05:10:00,
2013-01-02 00:40:00,6.1,1.0,29.94,NW,326,0.0,-999.0,79,-99.99,,,0.00,weatherlink.com 1.10,2013-01-02 05:40:00,
2013-01-02 00:55:00,5.4,1.0,29.93,NW,326,0.0,-999.0,80,-99.99,,,0.00,weatherlink.com 1.10,2013-01-02 05:55:00,
2013-01-02 01:10:00,4.6,0.0,29.94,NW,326,0.0,-999.0,80,-99.99,,,0.00,weatherlink.com 1.10,2013-01-02 06:10:00,
2013-01-02 01:28:00,4.1,-1.0,29.95,NW,326,0.0,-999.0,81,-99.99,,,0.00,weatherlink.com 1.10,2013-01-02 06:28:00,
2013-01-02 01:40:00,3.5,-1.0,29.96,NW,326,0.0,-999.0,81,-99.99,,,0.00,weatherlink.com 1.10,2013-01-02 06:40:00,
2013-01-02 01:55:00,3.0,-2.0,29.96,NW,326,0.0,-999.0,81,-99.99,,,0.00,weatherlink.com 1.10,2013-01-02 06:55:00,
2013-01-02 02:10:00,2.8,-1.0,29.97,NW,326,0.0,-999.0,83,-99.99,,,0.00,weatherlink.com 1.10,2013-01-02 07:10:00,
2013-01-02 02:25:00,2.7,-1.0,29.97,NW,326,0.0,-999.0,84,-99.99,,,0.00,weatherlink.com 1.10,2013-01-02 07:25:00,
2013-01-02 02:41:00,2.5,-1.0,29.97,NW,326,0.0,-999.0,84,-99.99,,,0.00,weatherlink.com 1.10,2013-01-02 07:41:00,
2013-01-02 03:11:00,2.0,-2.0,29.96,NW,326,0.0,-999.0,84,-99.99,,,0.00,weatherlink.com 1.10,2013-01-02 08:11:00,
2013-01-02 03:26:00,1.9,-2.0,29.96,NW,326,0.0,-999.0,84,-99.99,,,0.00,weatherlink.com 1.10,2013-01-02 08:26:00,
2013-01-02 03:41:00,2.0,-2.0,29.96,NW,326,0.0,-999.0,85,-99.99,,,0.00,weatherlink.com 1.10,2013-01-02 08:41:00,
2013-01-02 03:56:00,2.0,-2.0,29.96,NW,326,0.0,-999.0,85,-99.99,,,0.00,weatherlink.com 1.10,2013-01-02 08:56:00,
2013-01-02 04:11:00,1.9,-2.0,29.95,NW,326,0.0,-999.0,85,-99.99,,,0.00,weatherlink.com 1.10,2013-01-02 09:11:00,
2013-01-02 04:26:00,1.8,-2.0,29.96,NW,326,0.0,-999.0,85,-99.99,,,0.00,weatherlink.com 1.10,2013-01-02 09:26:00,
2013-01-02 04:41:00,1.6,-2.0,29.95,NW,326,0.0,-999.0,85,-99.99,,,0.00,weatherlink.com 1.10,2013-01-02 09:41:00,
2013-01-02 04:56:00,1.3,-2.0,29.96,NW,326,0.0,-999.0,85,-99.99,,,0.00,weatherlink.com 1.10,2013-01-02 09:56:00,
2013-01-02 05:11:00,1.1,-3.0,29.96,NW,326,0.0,-999.0,84,-99.99,,,0.00,weatherlink.com 1.10,2013-01-02 10:11:00,
2013-01-02 05:26:00,1.0,-3.0,29.96,NW,326,0.0,-999.0,85,-99.99,,,0.00,weatherlink.com 1.10,2013-01-02 10:26:00,
2013-01-02 05:41:00,0.8,-3.0,29.96,NW,326,0.0,-999.0,85,-99.99,,,0.00,weatherlink.com 1.10,2013-01-02 10:41:00,
2013-01-02 05:56:00,0.6,-3.0,29.97,NW,326,0.0,-999.0,84,-99.99,,,0.00,weatherlink.com 1.10,2013-01-02 10:56:00,
2013-01-02 06:12:00,0.4,-3.0,29.97,NW,326,0.0,-999.0,84,-99.99,,,0.00,weatherlink.com 1.10,2013-01-02 11:12:00,
2013-01-02 06:27:00,0.4,-3.0,29.97,NW,326,0.0,-999.0,85,-99.99,,,0.00,weatherlink.com 1.10,2013-01-02 11:27:00,
2013-01-02 06:42:00,0.7,-3.0,29.96,NW,326,0.0,-999.0,85,-99.99,,,0.00,weatherlink.com 1.10,2013-01-02 11:42:00,
2013-01-02 06:57:00,1.5,-2.0,29.96,NW,326,0.0,-999.0,86,-99.99,,,0.00,weatherlink.com 1.10,2013-01-02 11:57:00,
2013-01-02 07:27:00,2.8,0.0,29.96,SE,128,0.0,-999.0,87,-99.99,,,0.00,weatherlink.com 1.10,2013-01-02 12:27:00,
2013-01-02 07:42:00,4.6,2.0,29.95,NW,304,0.0,-999.0,88,-99.99,,,0.00,weatherlink.com 1.10,2013-01-02 12:42:00,
2013-01-02 07:57:00,6.9,4.0,29.95,SE,126,0.0,-999.0,89,-99.99,,,0.00,weatherlink.com 1.10,2013-01-02 12:57:00,
2013-01-02 08:12:00,7.2,4.0,29.95,SE,134,0.0,-999.0,87,-99.99,,,0.00,weatherlink.com 1.10,2013-01-02 13:12:00,
2013-01-02 08:27:00,8.7,6.0,29.96,South,186,0.0,-999.0,88,-99.99,,,0.00,weatherlink.com 1.10,2013-01-02 13:27:00,
2013-01-02 08:42:00,11.3,9.0,29.97,East,88,0.0,-999.0,88,-99.99,,,0.00,weatherlink.com 1.10,2013-01-02 13:42:00,
2013-01-02 08:57:00,13.5,10.0,29.97,SSW,200,0.0,-999.0,87,-99.99,,,0.00,weatherlink.com 1.10,2013-01-02 13:57:00,
2013-01-02 09:12:00,15.2,11.0,29.97,SSW,211,0.0,-999.0,84,-99.99,,,0.00,weatherlink.com 1.10,2013-01-02 14:12:00,
2013-01-02 09:27:00,17.5,11.0,29.98,West,259,0.0,-999.0,76,-99.99,,,0.00,weatherlink.com 1.10,2013-01-02 14:27:00,
2013-01-02 09:43:00,19.6,11.0,29.98,West,263,2.0,-999.0,70,-99.99,,,0.00,weatherlink.com 1.10,2013-01-02 14:43:00,
2013-01-02 09:58:00,20.7,11.0,29.98,WNW,288,2.0,-999.0,66,-99.99,,,0.00,weatherlink.com 1.10,2013-01-02 14:58:00,
2013-01-02 10:13:00,21.6,11.0,29.99,SSW,205,0.0,-999.0,64,-99.99,,,0.00,weatherlink.com 1.10,2013-01-02 15:13:00,
2013-01-02 10:28:00,22.1,12.0,29.99,West,280,1.0,-999.0,64,-99.99,,,0.00,weatherlink.com 1.10,2013-01-02 15:28:00,
2013-01-02 10:43:00,23.0,12.0,29.98,West,267,3.0,-999.0,62,-99.99,,,0.00,weatherlink.com 1.10,2013-01-02 15:43:00,
2013-01-02 10:58:00,23.7,12.0,29.98,West,264,6.0,-999.0,61,-99.99,,,0.00,weatherlink.com 1.10,2013-01-02 15:58:00,
2013-01-02 11:13:00,24.3,12.0,29.97,West,266,0.0,-999.0,60,-99.99,,,0.00,weatherlink.com 1.10,2013-01-02 16:13:00,
2013-01-02 11:28:00,24.8,13.0,29.97,WSW,254,2.0,-999.0,61,-99.99,,,0.00,weatherlink.com 1.10,2013-01-02 16:28:00,
2013-01-02 11:43:00,26.0,13.0,29.96,NW,311,4.0,-999.0,59,-99.99,,,0.00,weatherlink.com 1.10,2013-01-02 16:43:00,
2013-01-02 11:58:00,27.6,14.0,29.96,NW,311,5.0,-999.0,58,-99.99,,,0.00,weatherlink.com 1.10,2013-01-02 16:58:00,
2013-01-02 12:13:00,28.4,14.0,29.96,WSW,257,4.0,-999.0,56,-99.99,,,0.00,weatherlink.com 1.10,2013-01-02 17:13:00,
2013-01-02 12:28:00,29.0,15.0,29.96,NW,321,9.0,-999.0,55,-99.99,,,0.00,weatherlink.com 1.10,2013-01-02 17:28:00,
2013-01-02 12:43:00,28.2,14.0,29.95,WNW,285,5.0,-999.0,56,-99.99,,,0.00,weatherlink.com 1.10,2013-01-02 17:43:00,
2013-01-02 12:58:00,28.8,15.0,29.95,WNW,292,8.0,-999.0,56,-99.99,,,0.00,weatherlink.com 1.10,2013-01-02 17:58:00,
2013-01-02 13:14:00,28.7,15.0,29.96,NNW,327,6.0,-999.0,57,-99.99,,,0.00,weatherlink.com 1.10,2013-01-02 18:14:00,
2013-01-02 13:29:00,27.6,14.0,29.96,West,280,3.0,-999.0,58,-99.99,,,0.00,weatherlink.com 1.10,2013-01-02 18:29:00,
2013-01-02 13:44:00,26.7,14.0,29.97,West,280,5.0,-999.0,60,-99.99,,,0.00,weatherlink.com 1.10,2013-01-02 18:44:00,
2013-01-02 13:59:00,26.9,15.0,29.97,NW,315,3.0,-999.0,61,-99.99,,,0.00,weatherlink.com 1.10,2013-01-02 18:59:00,
2013-01-02 14:14:00,26.3,15.0,29.98,NW,315,4.0,-999.0,62,-99.99,,,0.00,weatherlink.com 1.10,2013-01-02 19:14:00,
2013-01-02 14:29:00,26.0,15.0,29.98,NNW,330,1.0,-999.0,63,-99.99,,,0.00,weatherlink.com 1.10,2013-01-02 19:29:00,
2013-01-02 14:44:00,25.3,15.0,29.99,West,268,4.0,-999.0,64,-99.99,,,0.00,weatherlink.com 1.10,2013-01-02 19:44:00,
2013-01-02 14:59:00,25.3,15.0,30.01,WNW,301,6.0,-999.0,64,-99.99,,,0.00,weatherlink.com 1.10,2013-01-02 19:59:00,
2013-01-02 15:14:00,25.0,14.0,30.01,NW,308,3.0,-999.0,64,-99.99,,,0.00,weatherlink.com 1.10,2013-01-02 20:14:00,
2013-01-02 15:29:00,24.7,14.0,30.01,NW,318,2.0,-999.0,65,-99.99,,,0.00,weatherlink.com 1.10,2013-01-02 20:29:00,
2013-01-02 15:44:00,24.6,15.0,30.03,WNW,300,3.0,-999.0,66,-99.99,,,0.00,weatherlink.com 1.10,2013-01-02 20:44:00,
2013-01-02 15:59:00,24.5,15.0,30.02,NW,319,1.0,-999.0,67,-99.99,,,0.00,weatherlink.com 1.10,2013-01-02 20:59:00,
2013-01-02 16:14:00,24.2,15.0,30.03,NW,314,0.0,-999.0,67,-99.99,,,0.00,weatherlink.com 1.10,2013-01-02 21:14:00,
2013-01-02 16:30:00,23.9,15.0,30.04,WNW,286,4.0,-999.0,69,-99.99,,,0.00,weatherlink.com 1.10,2013-01-02 21:30:00,
2013-01-02 16:45:00,23.6,15.0,30.04,WNW,284,6.0,-999.0,70,-99.99,,,0.00,weatherlink.com 1.10,2013-01-02 21:45:00,
2013-01-02 17:00:00,23.4,15.0,30.04,NW,304,2.0,-999.0,71,-99.99,,,0.00,weatherlink.com 1.10,2013-01-02 22:00:00,
2013-01-02 17:15:00,23.2,15.0,30.04,West,274,9.0,-999.0,72,-99.99,,,0.00,weatherlink.com 1.10,2013-01-02 22:15:00,
2013-01-02 17:30:00,22.9,15.0,30.05,WNW,289,2.0,-999.0,72,-99.99,,,0.00,weatherlink.com 1.10,2013-01-02 22:30:00,
2013-01-02 17:45:00,22.5,15.0,30.05,NW,315,3.0,-999.0,73,-99.99,,,0.00,weatherlink.com 1.10,2013-01-02 22:45:00,
2013-01-02 18:00:00,22.1,15.0,30.06,WNW,292,3.0,-999.0,73,-99.99,,,0.00,weatherlink.com 1.10,2013-01-02 23:00:00,
2013-01-02 18:15:00,21.7,15.0,30.06,NNW,328,1.0,-999.0,74,-99.99,,,0.00,weatherlink.com 1.10,2013-01-02 23:15:00,
2013-01-02 18:30:00,21.2,14.0,30.07,WNW,296,2.0,-999.0,75,-99.99,,,0.00,weatherlink.com 1.10,2013-01-02 23:30:00,
2013-01-02 18:45:00,20.7,15.0,30.08,NW,317,0.0,-999.0,77,-99.99,,,0.00,weatherlink.com 1.10,2013-01-02 23:45:00,
2013-01-02 18:59:00,20.3,14.0,30.09,NW,313,3.0,-999.0,78,-99.99,,,0.00,weatherlink.com 1.10,2013-01-02 23:59:00,
2013-01-02 19:14:00,19.8,14.0,30.09,NW,325,2.0,-999.0,78,-99.99,,,0.00,weatherlink.com 1.10,2013-01-03 00:14:00,
2013-01-02 19:30:00,19.3,13.0,30.09,NW,318,4.0,-999.0,77,-99.99,,,0.00,weatherlink.com 1.10,2013-01-03 00:30:00,
2013-01-02 19:45:00,18.9,13.0,30.09,NNW,338,2.0,-999.0,77,-99.99,,,0.00,weatherlink.com 1.10,2013-01-03 00:45:00,
2013-01-02 20:01:00,18.7,13.0,30.09,WNW,296,1.0,-999.0,77,-99.99,,,0.00,weatherlink.com 1.10,2013-01-03 01:01:00,
2013-01-02 20:31:00,18.2,12.0,30.10,North,360,3.0,-999.0,76,-99.99,,,0.00,weatherlink.com 1.10,2013-01-03 01:31:00,
2013-01-02 20:46:00,17.8,11.0,30.10,NW,308,3.0,-999.0,76,-99.99,,,0.00,weatherlink.com 1.10,2013-01-03 01:46:00,
2013-01-02 21:01:00,17.6,11.0,30.10,NNW,329,2.0,-999.0,75,-99.99,,,0.00,weatherlink.com 1.10,2013-01-03 02:01:00,
2013-01-02 21:16:00,17.3,10.0,30.11,NW,323,3.0,-999.0,74,-99.99,,,0.00,weatherlink.com 1.10,2013-01-03 02:16:00,
2013-01-02 21:31:00,17.0,10.0,30.11,NNW,333,4.0,-999.0,74,-99.99,,,0.00,weatherlink.com 1.10,2013-01-03 02:31:00,
2013-01-02 21:46:00,16.9,10.0,30.12,NNW,335,0.0,-999.0,74,-99.99,,,0.00,weatherlink.com 1.10,2013-01-03 02:46:00,
2013-01-02 22:01:00,16.4,9.0,30.13,NW,319,3.0,-999.0,73,-99.99,,,0.00,weatherlink.com 1.10,2013-01-03 03:01:00,
2013-01-02 22:16:00,16.0,8.0,30.13,NNW,348,3.0,-999.0,71,-99.99,,,0.00,weatherlink.com 1.10,2013-01-03 03:16:00,
2013-01-02 22:46:00,14.8,5.0,30.13,NNW,335,5.0,-999.0,64,-99.99,,,0.00,weatherlink.com 1.10,2013-01-03 03:46:00,
2013-01-02 23:01:00,14.4,4.0,30.14,NNW,344,3.0,-999.0,63,-99.99,,,0.00,weatherlink.com 1.10,2013-01-03 04:01:00,
2013-01-02 23:16:00,13.8,3.0,30.14,North,350,7.0,-999.0,63,-99.99,,,0.00,weatherlink.com 1.10,2013-01-03 04:16:00,
2013-01-02 23:32:00,13.1,3.0,30.15,NNW,334,4.0,-999.0,64,-99.99,,,0.00,weatherlink.com 1.10,2013-01-03 04:32:00,
2013-01-02 23:47:00,12.6,3.0,30.15,North,350,5.0,-999.0,64,-99.99,,,0.00,weatherlink.com 1.10,2013-01-03 04:47:00,